Time;durP1;ratioP1;P1;durP2;ratioP2;P2;SDS_P1;SDS_P2;PMS_P1;PMS_P2;Temp;Humidity;BMP_temperature;BMP_pressure;BME280_temperature;BME280_humidity;BME280_pressure;Samples;Min_cycle;Max_cycle;Signal;HPM_P1;HPM_P2
2022/07/06 00:01:20;;;;;;;6.30;5.67;;;;;;;25.10;58.12;99532.30;1816765;77;21770;-75
2022/07/06 00:03:48;;;;;;;6.83;5.95;;;;;;;25.08;58.11;99524.97;1822728;77;21236;-73
2022/07/06 00:06:17;;;;;;;8.40;6.50;;;;;;;25.07;58.20;99532.83;1812987;77;21040;-75
2022/07/06 00:08:44;;;;;;;6.37;5.78;;;;;;;25.06;58.15;99528.50;1822267;77;21080;-75
2022/07/06 00:11:11;;;;;;;7.00;6.00;;;;;;;25.03;58.45;99525.75;1824474;77;21629;-77
2022/07/06 00:13:37;;;;;;;7.22;6.08;;;;;;;25.02;58.57;99524.69;1811280;78;21096;-76
2022/07/06 00:16:04;;;;;;;6.08;5.47;;;;;;;25.00;58.56;99521.42;1815434;77;21476;-75
2022/07/06 00:18:31;;;;;;;8.83;6.70;;;;;;;24.98;58.68;99522.23;1801497;77;21479;-75
2022/07/06 00:20:58;;;;;;;7.78;5.75;;;;;;;24.97;58.91;99526.02;1815511;78;21033;-74
2022/07/06 00:23:24;;;;;;;8.05;5.97;;;;;;;24.96;59.15;99520.34;1812938;77;21067;-77
2022/07/06 00:25:51;;;;;;;6.55;5.92;;;;;;;24.93;59.23;99517.59;1811016;78;21081;-75
2022/07/06 00:28:18;;;;;;;9.50;6.40;;;;;;;24.90;59.41;99523.03;1810798;77;21138;-76
2022/07/06 00:30:46;;;;;;;10.18;6.22;;;;;;;24.89;59.59;99520.58;1797825;78;22109;-74
2022/07/06 00:33:13;;;;;;;6.72;6.12;;;;;;;24.86;59.74;99520.58;1788179;77;21033;-75
2022/07/06 00:35:40;;;;;;;7.17;5.72;;;;;;;24.84;60.09;99520.55;1813743;77;21050;-74
2022/07/06 00:38:09;;;;;;;6.83;5.87;;;;;;;24.80;60.30;99523.02;1818378;77;21041;-74
2022/07/06 00:40:35;;;;;;;11.25;6.53;;;;;;;24.78;60.49;99520.27;1819125;77;21080;-75
2022/07/06 00:43:02;;;;;;;9.63;6.03;;;;;;;24.73;60.82;99521.89;1819107;77;21006;-74
2022/07/06 00:45:29;;;;;;;8.85;6.40;;;;;;;24.70;61.33;99525.12;1807904;77;21032;-74
2022/07/06 00:47:56;;;;;;;7.15;5.65;;;;;;;24.67;61.37;99522.16;1806382;77;21001;-74
2022/07/06 00:50:23;;;;;;;7.17;6.47;;;;;;;24.64;62.05;99526.20;1813059;77;21029;-73
2022/07/06 00:52:59;;;;;;;9.20;6.33;;;;;;;24.61;62.22;99523.20;1817562;77;21533;-73
2022/07/06 00:55:31;;;;;;;10.85;7.05;;;;;;;24.57;62.69;99523.45;1777953;78;21021;-73
2022/07/06 00:57:59;;;;;;;6.55;5.87;;;;;;;24.53;63.01;99519.93;1807381;78;21513;-75
2022/07/06 01:00:27;;;;;;;6.97;6.28;;;;;;;24.50;62.92;99524.48;1814397;77;21076;-73
2022/07/06 01:02:53;;;;;;;11.53;6.70;;;;;;;24.48;63.24;99521.77;1817117;78;21003;-73
2022/07/06 01:05:20;;;;;;;7.83;6.62;;;;;;;24.46;63.31;99516.60;1817033;77;21174;-73
2022/07/06 01:07:49;;;;;;;8.23;6.28;;;;;;;24.46;63.24;99515.80;1809659;77;21579;-73
2022/07/06 01:10:17;;;;;;;7.80;5.87;;;;;;;24.44;63.34;99523.39;1811035;78;21509;-74
2022/07/06 01:12:45;;;;;;;7.00;6.28;;;;;;;24.41;63.31;99515.22;1818569;77;21028;-74
2022/07/06 01:17:39;;;;;;;7.90;6.60;;;;;;;24.39;63.42;99513.30;1814891;77;21453;-72
2022/07/06 01:20:15;;;;;;;8.00;6.67;;;;;;;24.38;63.44;99507.62;1820256;77;21044;-73
2022/07/06 01:22:43;;;;;;;8.18;7.15;;;;;;;24.36;63.46;99515.21;1815100;77;21598;-73
2022/07/06 01:25:10;;;;;;;8.63;6.28;;;;;;;24.35;63.33;99521.70;1824071;77;21065;-76
2022/07/06 01:27:39;;;;;;;7.25;6.55;;;;;;;24.31;63.43;99513.27;1818777;78;21133;-74
2022/07/06 01:30:09;;;;;;;7.42;6.78;;;;;;;24.31;63.32;99519.25;1799054;77;21875;-75
2022/07/06 01:32:38;;;;;;;8.13;6.42;;;;;;;24.30;63.26;99514.38;1810292;77;21516;-75
2022/07/06 01:35:09;;;;;;;7.65;6.87;;;;;;;24.30;63.20;99519.80;1804886;78;21473;-75
2022/07/06 01:37:37;;;;;;;7.53;6.85;;;;;;;24.29;63.24;99514.63;1783855;77;21111;-74
2022/07/06 01:40:07;;;;;;;7.70;6.80;;;;;;;24.27;63.02;99512.17;1819133;77;21721;-74
2022/07/06 01:42:33;;;;;;;8.55;6.78;;;;;;;24.26;63.11;99507.84;1813481;77;21169;-78
2022/07/06 01:45:00;;;;;;;7.60;6.37;;;;;;;24.25;63.08;99500.77;1786030;78;20999;-75
2022/07/06 01:47:26;;;;;;;7.95;6.42;;;;;;;24.24;63.25;99501.86;1818632;77;21619;-75
2022/07/06 01:49:53;;;;;;;13.32;6.87;;;;;;;24.24;63.26;99503.73;1811717;77;21651;-79
2022/07/06 01:52:21;;;;;;;7.53;6.67;;;;;;;24.22;63.20;99504.02;1814920;77;21087;-77
2022/07/06 01:54:48;;;;;;;12.63;6.85;;;;;;;24.22;63.07;99503.19;1806368;78;21183;-78
2022/07/06 01:57:14;;;;;;;7.37;6.00;;;;;;;24.21;62.93;99510.52;1820881;78;20966;-76
2022/07/06 01:59:42;;;;;;;8.55;6.85;;;;;;;24.21;62.87;99510.52;1816834;77;21040;-78
2022/07/06 02:02:09;;;;;;;9.05;6.15;;;;;;;24.20;62.77;99508.88;1819682;77;21332;-75
2022/07/06 02:04:35;;;;;;;11.50;6.80;;;;;;;24.22;62.73;99509.97;1784439;78;21077;-74
2022/07/06 02:07:03;;;;;;;9.03;6.67;;;;;;;24.22;62.81;99515.40;1820387;77;21191;-73
2022/07/06 02:09:29;;;;;;;7.28;6.60;;;;;;;24.21;63.19;99511.88;1817308;78;21055;-74
2022/07/06 02:11:57;;;;;;;7.42;6.72;;;;;;;24.21;63.18;99509.70;1805774;77;21053;-75
2022/07/06 02:14:25;;;;;;;8.58;6.67;;;;;;;24.19;62.96;99508.61;1814690;77;21060;-74
2022/07/06 02:16:52;;;;;;;10.00;6.42;;;;;;;24.18;62.92;99502.08;1782773;78;21597;-73
2022/07/06 02:19:18;;;;;;;7.05;6.35;;;;;;;24.18;62.80;99505.61;1815511;77;22883;-74
2022/07/06 02:21:47;;;;;;;8.40;7.58;;;;;;;24.18;62.79;99507.51;1820173;77;21592;-74
2022/07/06 02:24:14;;;;;;;10.93;6.83;;;;;;;24.16;62.51;99501.53;1821481;77;20965;-73
2022/07/06 02:26:40;;;;;;;7.78;6.85;;;;;;;24.17;62.34;99500.47;1800740;78;21014;-74
2022/07/06 02:29:07;;;;;;;7.50;6.08;;;;;;;24.19;62.32;99498.30;1814103;77;21123;-73
2022/07/06 02:31:34;;;;;;;7.70;6.85;;;;;;;24.19;62.34;99499.66;1822749;78;21131;-76
2022/07/06 02:34:01;;;;;;;7.70;6.90;;;;;;;24.21;62.43;99500.21;1822319;77;21019;-72
2022/07/06 02:36:28;;;;;;;8.65;6.75;;;;;;;24.20;62.28;99501.27;1822874;78;21177;-75
2022/07/06 02:38:55;;;;;;;10.48;6.85;;;;;;;24.21;62.14;99500.21;1814331;77;21024;-76
2022/07/06 02:41:22;;;;;;;9.43;6.72;;;;;;;24.22;62.04;99497.75;1815471;77;21033;-75
2022/07/06 02:43:48;;;;;;;7.05;6.35;;;;;;;24.21;61.74;99501.02;1816960;77;21872;-76
2022/07/06 02:46:16;;;;;;;7.37;6.65;;;;;;;24.23;61.78;99503.48;1780252;79;21102;-74
2022/07/06 02:48:44;;;;;;;7.28;6.67;;;;;;;24.21;61.77;99499.66;1750368;81;20989;-73
2022/07/06 02:51:11;;;;;;;6.40;5.85;;;;;;;24.21;61.57;99499.66;1735801;81;21026;-73
2022/07/06 02:53:38;;;;;;;7.20;6.40;;;;;;;24.21;61.47;99496.14;1750361;80;21100;-76
2022/07/06 02:56:05;;;;;;;8.60;6.80;;;;;;;24.22;61.49;99501.31;1739266;82;21153;-73
2022/07/06 02:58:33;;;;;;;8.05;6.20;;;;;;;24.23;61.41;99504.83;1774054;80;21038;-74
2022/07/06 03:01:00;;;;;;;7.72;6.62;;;;;;;24.23;61.41;99498.05;1773334;80;20982;-73
2022/07/06 03:03:26;;;;;;;7.30;6.67;;;;;;;24.21;61.49;99496.95;1789355;79;20973;-74
2022/07/06 03:05:53;;;;;;;7.15;6.35;;;;;;;24.21;61.54;99502.92;1777459;79;21049;-77
2022/07/06 03:08:21;;;;;;;9.40;7.40;;;;;;;24.21;61.42;99505.09;1775529;80;21278;-79
2022/07/06 03:10:49;;;;;;;6.92;6.20;;;;;;;24.19;61.30;99498.30;1769587;80;21025;-79
2022/07/06 03:13:17;;;;;;;9.48;7.10;;;;;;;24.18;61.19;99501.53;1770082;80;21557;-83
2022/07/06 03:15:44;;;;;;;7.45;6.75;;;;;;;24.19;61.14;99499.66;1778991;80;21069;-80
2022/07/06 03:18:11;;;;;;;7.37;6.62;;;;;;;24.20;61.15;99491.78;1777794;80;21545;-80
2022/07/06 03:20:38;;;;;;;8.08;6.87;;;;;;;24.21;61.09;99494.23;1795464;78;21070;-81
2022/07/06 03:23:06;;;;;;;7.35;6.55;;;;;;;24.21;61.10;99494.78;1790024;80;21061;-81
2022/07/06 03:25:32;;;;;;;7.45;6.45;;;;;;;24.22;60.70;99495.05;1743553;81;21071;-79
2022/07/06 03:27:59;;;;;;;8.23;7.05;;;;;;;24.22;60.43;99498.59;1756827;81;21085;-78
2022/07/06 03:30:25;;;;;;;8.40;7.45;;;;;;;24.24;60.25;99499.14;1787719;78;21053;-79
2022/07/06 03:32:54;;;;;;;7.20;6.50;;;;;;;24.26;60.09;99498.86;1788816;78;21086;-82
2022/07/06 03:35:21;;;;;;;6.78;6.10;;;;;;;24.28;59.88;99493.46;1789601;78;21078;-80
2022/07/06 03:37:49;;;;;;;9.73;6.37;;;;;;;24.31;59.69;99500.25;1790743;78;21086;-81
2022/07/06 03:40:16;;;;;;;6.80;6.20;;;;;;;24.34;59.42;99506.52;1788407;80;21455;-80
2022/07/06 03:42:44;;;;;;;8.18;5.95;;;;;;;24.36;59.40;99500.28;1780185;80;21016;-78
2022/07/06 03:45:11;;;;;;;8.53;6.03;;;;;;;24.41;59.01;99498.12;1791434;78;21183;-78
2022/07/06 03:47:38;;;;;;;8.73;5.90;;;;;;;24.45;59.08;99505.45;1792499;80;20995;-80
2022/07/06 03:50:07;;;;;;;6.15;5.65;;;;;;;24.49;59.11;99499.80;1764064;80;21054;-82
2022/07/06 03:52:39;;;;;;;6.78;6.10;;;;;;;24.55;59.06;99501.19;1758656;80;21076;-79
2022/07/06 03:55:05;;;;;;;6.60;5.90;;;;;;;24.58;58.59;99494.68;1752353;81;21011;-81
2022/07/06 03:57:32;;;;;;;8.35;6.10;;;;;;;24.64;58.29;99498.23;1757370;80;21140;-80
2022/07/06 04:00:02;;;;;;;6.85;6.03;;;;;;;24.69;57.95;99496.91;1763799;80;21124;-80
2022/07/06 04:02:30;;;;;;;6.33;5.72;;;;;;;24.75;57.72;99497.73;1763380;79;21104;-80
2022/07/06 04:04:56;;;;;;;6.92;6.08;;;;;;;24.81;57.66;99496.66;1764798;80;21014;-81
2022/07/06 04:07:23;;;;;;;6.83;6.10;;;;;;;24.85;57.47;99493.13;1742061;80;21042;-81
2022/07/06 04:09:49;;;;;;;7.37;5.78;;;;;;;24.90;57.44;99489.63;1739193;79;21213;-78
2022/07/06 04:12:17;;;;;;;7.10;5.53;;;;;;;24.95;57.42;99486.89;1788965;78;21009;-80
2022/07/06 04:14:44;;;;;;;6.30;5.78;;;;;;;24.99;57.20;99483.09;1790190;79;20990;-80
2022/07/06 04:19:57;;;;;;;9.95;5.70;;;;;;;25.08;56.71;99489.09;1771352;80;21821;-79
2022/07/06 04:22:23;;;;;;;6.83;5.78;;;;;;;25.14;56.52;99485.83;1771007;79;21282;-81
2022/07/06 04:24:52;;;;;;;6.30;5.70;;;;;;;25.20;56.45;99479.31;1782456;79;21536;-80
2022/07/06 04:27:19;;;;;;;8.35;6.45;;;;;;;25.27;56.19;99485.33;1767420;80;21036;-78
2022/07/06 04:29:46;;;;;;;6.50;5.90;;;;;;;25.34;55.92;99484.23;1768292;80;21017;-81
2022/07/06 04:32:13;;;;;;;5.95;5.30;;;;;;;25.40;55.54;99472.27;1767129;80;21072;-79
2022/07/06 04:34:40;;;;;;;7.50;6.10;;;;;;;25.47;55.36;99480.42;1771310;80;21223;-79
2022/07/06 04:37:06;;;;;;;7.80;6.78;;;;;;;25.58;55.53;99476.36;1771232;80;21041;-78
2022/07/06 04:39:32;;;;;;;6.20;5.60;;;;;;;25.69;55.46;99483.39;1738792;80;21089;-80
2022/07/06 04:42:00;;;;;;;6.10;5.50;;;;;;;25.83;55.00;99467.33;1770958;80;21013;-80
2022/07/06 04:44:26;;;;;;;6.70;5.97;;;;;;;25.96;54.19;99468.15;1763842;80;21022;-79
2022/07/06 04:46:54;;;;;;;8.65;5.95;;;;;;;26.12;53.74;99470.83;1764684;80;21107;-79
2022/07/06 04:49:21;;;;;;;8.10;5.83;;;;;;;26.22;53.82;99474.31;1762889;80;21033;-81
2022/07/06 04:51:48;;;;;;;8.15;5.40;;;;;;;26.31;53.41;99461.47;1759112;80;21065;-79
2022/07/06 04:54:15;;;;;;;11.53;5.25;;;;;;;26.38;53.42;99460.07;1770932;80;21049;-81
2022/07/06 04:56:42;;;;;;;7.28;4.87;;;;;;;26.45;53.32;99451.61;1768676;80;21021;-79
2022/07/06 04:59:11;;;;;;;7.60;5.53;;;;;;;26.46;53.01;99451.34;1773837;80;21048;-79
2022/07/06 05:01:37;;;;;;;7.03;5.20;;;;;;;26.47;53.27;99443.42;1767758;80;21014;-78
2022/07/06 05:04:04;;;;;;;5.08;4.62;;;;;;;26.53;53.48;99446.94;1774007;80;21490;-80
2022/07/06 05:06:31;;;;;;;7.00;5.55;;;;;;;26.64;52.90;99451.27;1765433;80;21622;-79
2022/07/06 05:08:59;;;;;;;6.95;5.20;;;;;;;26.79;52.03;99457.17;1764922;80;21073;-80
2022/07/06 05:11:27;;;;;;;9.60;5.65;;;;;;;26.93;51.20;99449.73;1769482;80;21141;-82
2022/07/06 05:13:54;;;;;;;7.83;5.28;;;;;;;27.05;50.93;99455.06;1753948;80;21532;-82
2022/07/06 05:16:22;;;;;;;9.15;5.08;;;;;;;27.19;50.83;99446.23;1761407;80;20990;-79
2022/07/06 05:18:49;;;;;;;8.20;5.47;;;;;;;27.30;50.41;99452.47;1757906;80;21528;-81
2022/07/06 05:21:16;;;;;;;6.03;5.30;;;;;;;27.36;50.32;99452.13;1727364;82;21068;-81
2022/07/06 05:23:43;;;;;;;8.75;5.05;;;;;;;27.42;50.06;99458.34;1728615;82;21476;-81
2022/07/06 05:26:10;;;;;;;5.55;5.00;;;;;;;27.46;50.13;99458.84;1733907;82;21085;-82
2022/07/06 05:28:37;;;;;;;6.72;4.87;;;;;;;27.48;49.88;99445.48;1728742;82;21080;-82
2022/07/06 05:31:06;;;;;;;5.83;5.15;;;;;;;27.44;50.13;99442.50;1729254;82;21088;-83
2022/07/06 05:33:32;;;;;;;9.45;5.05;;;;;;;27.38;50.38;99436.28;1728323;82;21064;-82
2022/07/06 05:35:59;;;;;;;6.22;5.62;;;;;;;27.34;50.66;99437.16;1732672;82;21275;-82
2022/07/06 05:38:27;;;;;;;6.33;4.78;;;;;;;27.31;50.59;99444.53;1683043;82;20976;-82
2022/07/06 05:40:55;;;;;;;7.90;5.55;;;;;;;27.25;50.99;99441.03;1731870;81;21052;-82
2022/07/06 05:43:23;;;;;;;9.55;5.50;;;;;;;27.25;50.95;99443.23;1730997;81;21100;-83
2022/07/06 05:45:50;;;;;;;5.83;5.22;;;;;;;27.33;50.97;99446.42;1733639;82;21035;-84
2022/07/06 05:51:03;;;;;;;5.05;4.55;;;;;;;27.40;50.24;99453.17;1707880;82;21062;-83
2022/07/06 05:53:30;;;;;;;7.83;4.95;;;;;;;27.41;49.79;99435.72;1726040;82;21041;-82
2022/07/06 05:55:57;;;;;;;6.15;5.22;;;;;;;27.42;49.90;99428.34;1719020;82;21010;-84
2022/07/06 05:58:24;;;;;;;6.90;4.90;;;;;;;27.46;49.73;99426.10;1732807;82;21655;-83
2022/07/06 06:00:53;;;;;;;8.65;5.03;;;;;;;27.52;49.73;99421.97;1728715;82;21619;-83
2022/07/06 06:03:20;;;;;;;5.90;4.70;;;;;;;27.57;49.36;99428.20;1729273;82;21029;-82
2022/07/06 06:05:49;;;;;;;7.00;5.10;;;;;;;27.60;49.19;99428.99;1728315;82;21088;-82
2022/07/06 06:08:18;;;;;;;7.97;4.87;;;;;;;27.62;48.96;99422.70;1721816;82;21034;-83
2022/07/06 06:10:44;;;;;;;6.78;5.08;;;;;;;27.67;48.86;99412.83;1726597;79;21073;-83
2022/07/06 06:13:13;;;;;;;8.25;4.87;;;;;;;27.73;49.00;99409.73;1738698;82;21459;-81
2022/07/06 06:15:39;;;;;;;5.65;5.10;;;;;;;27.83;48.83;99411.53;1734588;82;21492;-82
2022/07/06 06:18:06;;;;;;;5.30;4.65;;;;;;;27.91;48.81;99408.22;1734807;82;21556;-82
2022/07/06 06:20:33;;;;;;;5.90;5.15;;;;;;;28.00;48.36;99408.38;1775396;80;21019;-82
2022/07/06 06:23:00;;;;;;;6.67;5.05;;;;;;;28.04;48.20;99402.02;1769104;80;20915;-81
2022/07/06 06:25:35;;;;;;;5.60;5.08;;;;;;;28.10;48.07;99395.14;1820325;78;21458;-81
2022/07/06 06:28:07;;;;;;;10.23;5.25;;;;;;;28.15;48.09;99397.81;1808722;77;21053;-80
2022/07/06 06:30:34;;;;;;;7.17;4.85;;;;;;;28.16;47.78;99400.27;1811928;77;21174;-82
2022/07/06 06:33:11;;;;;;;6.10;4.85;;;;;;;28.16;47.96;99398.06;1820584;78;20998;-78
2022/07/06 06:35:44;;;;;;;6.75;5.00;;;;;;;28.18;47.83;99395.84;1819499;78;21037;-80
2022/07/06 06:38:10;;;;;;;6.00;5.33;;;;;;;28.22;47.74;99400.45;1824422;77;21082;-78
2022/07/06 06:40:38;;;;;;;7.00;5.20;;;;;;;28.26;47.81;99389.75;1815979;78;20996;-81
2022/07/06 06:43:04;;;;;;;6.28;5.40;;;;;;;28.30;48.08;99394.05;1820320;77;21489;-81
2022/07/06 06:45:32;;;;;;;5.33;4.67;;;;;;;28.36;47.88;99389.60;1819665;77;21017;-81
2022/07/06 06:47:58;;;;;;;5.35;4.85;;;;;;;28.46;47.58;99386.47;1800848;77;21044;-81
2022/07/06 06:50:25;;;;;;;11.38;5.35;;;;;;;28.53;47.67;99382.83;1809173;78;21106;-81
2022/07/06 06:52:51;;;;;;;9.20;5.55;;;;;;;28.57;47.64;99372.39;1806957;78;21022;-80
2022/07/06 06:55:19;;;;;;;7.22;5.25;;;;;;;28.64;47.72;99373.38;1813289;77;21019;-79
2022/07/06 06:57:51;;;;;;;6.28;5.17;;;;;;;28.74;47.71;99370.50;1801079;78;21077;-80
2022/07/06 07:00:18;;;;;;;6.40;4.83;;;;;;;28.85;47.55;99372.50;1805214;77;21037;-81
2022/07/06 07:02:45;;;;;;;5.78;5.05;;;;;;;28.94;46.21;99369.91;1812559;77;21100;-80
2022/07/06 07:05:11;;;;;;;5.92;4.97;;;;;;;28.99;45.69;99371.16;1802629;77;21799;-78
2022/07/06 07:07:38;;;;;;;5.75;5.12;;;;;;;29.01;45.99;99379.34;1810113;78;21017;-77
2022/07/06 07:10:08;;;;;;;5.50;4.90;;;;;;;29.03;46.33;99376.28;1818546;77;21033;-77
2022/07/06 07:12:34;;;;;;;6.87;5.03;;;;;;;29.07;45.42;99377.34;1797801;77;21002;-78
2022/07/06 07:15:01;;;;;;;6.10;5.20;;;;;;;29.13;45.52;99385.73;1812558;77;21125;-80
2022/07/06 07:17:27;;;;;;;6.67;4.70;;;;;;;29.13;45.04;99371.22;1768092;79;21114;-78
2022/07/06 07:19:56;;;;;;;6.40;4.78;;;;;;;29.12;45.27;99366.32;1806645;77;21044;-74
2022/07/06 07:22:22;;;;;;;7.60;5.28;;;;;;;29.14;45.66;99376.41;1811303;77;21052;-76
2022/07/06 07:24:49;;;;;;;5.33;4.85;;;;;;;29.18;45.65;99368.41;1817394;77;21024;-77
2022/07/06 07:27:16;;;;;;;6.85;5.42;;;;;;;29.23;45.80;99358.76;1805881;77;21025;-78
2022/07/06 07:29:43;;;;;;;5.70;4.95;;;;;;;29.27;46.25;99363.08;1778763;78;21092;-79
2022/07/06 07:32:09;;;;;;;7.70;5.15;;;;;;;29.32;46.65;99354.75;1819979;78;20986;-79
2022/07/06 07:34:37;;;;;;;5.65;4.70;;;;;;;29.39;46.71;99357.91;1812585;78;21025;-83
2022/07/06 07:37:04;;;;;;;7.17;4.97;;;;;;;29.48;46.49;99358.84;1788401;78;21069;-78
2022/07/06 07:39:30;;;;;;;7.58;5.40;;;;;;;29.52;46.41;99361.22;1817106;77;21120;-81
2022/07/06 07:41:56;;;;;;;8.10;5.62;;;;;;;29.57;46.58;99354.28;1808323;78;20960;-81
2022/07/06 07:44:24;;;;;;;7.83;5.37;;;;;;;29.64;46.60;99347.59;1818590;77;21006;-80
2022/07/06 07:46:52;;;;;;;8.45;5.42;;;;;;;29.72;46.79;99355.92;1815942;77;21065;-80
2022/07/06 07:49:20;;;;;;;5.30;4.80;;;;;;;29.82;46.74;99358.20;1811874;77;21026;-80
2022/07/06 07:51:50;;;;;;;8.48;5.50;;;;;;;29.89;45.91;99361.34;1817223;77;21126;-81
2022/07/06 07:54:16;;;;;;;5.55;4.90;;;;;;;29.91;45.89;99364.02;1819834;78;20986;-82
2022/07/06 07:56:43;;;;;;;6.80;5.25;;;;;;;29.93;45.90;99360.98;1815764;77;21136;-80
2022/07/06 07:59:10;;;;;;;7.33;5.45;;;;;;;29.93;46.09;99364.52;1815134;77;21782;-78
2022/07/06 08:01:37;;;;;;;6.97;5.28;;;;;;;29.92;46.05;99351.13;1813495;77;21047;-79
2022/07/06 08:04:03;;;;;;;5.70;5.20;;;;;;;29.94;46.37;99368.89;1810710;77;21142;-76
2022/07/06 08:06:30;;;;;;;11.93;5.60;;;;;;;29.98;46.15;99361.69;1816099;77;21041;-78
2022/07/06 08:08:57;;;;;;;6.20;5.35;;;;;;;30.01;46.35;99365.73;1814747;77;21077;-79
2022/07/06 08:11:24;;;;;;;6.00;5.40;;;;;;;30.04;46.58;99365.66;1814167;77;21130;-78
2022/07/06 08:13:52;;;;;;;9.88;5.47;;;;;;;30.05;46.88;99357.72;1809750;77;21548;-78
2022/07/06 08:16:18;;;;;;;8.60;4.45;;;;;;;30.09;46.70;99366.94;1819266;77;21673;-79
2022/07/06 08:18:45;;;;;;;6.05;5.40;;;;;;;30.16;46.71;99356.38;1816289;78;20978;-79
2022/07/06 08:21:11;;;;;;;5.65;5.15;;;;;;;30.26;45.83;99363.55;1772413;78;21028;-80
2022/07/06 08:23:38;;;;;;;6.10;5.50;;;;;;;30.32;45.58;99360.41;1813866;78;21658;-80
2022/07/06 08:26:04;;;;;;;5.75;5.15;;;;;;;30.32;46.05;99348.65;1818500;77;21561;-76
2022/07/06 08:28:32;;;;;;;5.67;5.00;;;;;;;30.37;46.00;99341.12;1810283;78;21067;-78
2022/07/06 08:30:59;;;;;;;5.85;5.33;;;;;;;30.50;46.13;99346.86;1818243;77;21505;-79
2022/07/06 08:35:19;;;;;;;7.50;6.20;;;;;;;30.82;46.24;99342.27;1788450;78;22671;-81
2022/07/06 08:37:46;;;;;;;6.65;5.97;;;;;;;30.96;45.75;99347.95;1752041;79;20943;-83
2022/07/06 08:40:13;;;;;;;9.25;6.15;;;;;;;31.17;45.23;99328.20;1734604;81;21075;-81
2022/07/06 08:42:41;;;;;;;7.00;6.03;;;;;;;31.45;45.52;99329.39;1745494;81;20927;-79
2022/07/06 08:45:09;;;;;;;6.10;5.60;;;;;;;31.74;44.12;99327.48;1756484;80;21022;-79
2022/07/06 08:47:37;;;;;;;8.08;5.60;;;;;;;31.99;43.41;99327.84;1738308;81;21569;-79
2022/07/06 08:50:07;;;;;;;6.80;6.10;;;;;;;32.28;43.60;99330.81;1754629;81;21053;-85
2022/07/06 08:52:34;;;;;;;6.60;5.85;;;;;;;32.59;43.16;99327.12;1741009;80;22433;-79
2022/07/06 08:55:01;;;;;;;5.67;5.12;;;;;;;32.87;42.59;99336.36;1741966;80;21121;-81
2022/07/06 08:57:28;;;;;;;7.00;5.85;;;;;;;33.12;41.62;99337.46;1733983;81;21017;-83
2022/07/06 08:59:54;;;;;;;8.00;6.08;;;;;;;33.27;41.50;99325.91;1747852;80;21045;-80
2022/07/06 09:02:24;;;;;;;5.87;5.37;;;;;;;33.37;41.65;99346.77;1745384;80;21093;-81
2022/07/06 09:04:50;;;;;;;6.25;5.28;;;;;;;33.35;41.91;99322.89;1743263;80;21788;-81
2022/07/06 09:07:17;;;;;;;8.03;5.45;;;;;;;33.34;41.64;99314.41;1722466;81;21085;-81
2022/07/06 09:09:45;;;;;;;5.80;5.20;;;;;;;33.37;41.28;99306.05;1741149;80;21096;-83
2022/07/06 09:12:15;;;;;;;6.90;5.10;;;;;;;33.41;41.63;99311.12;1740772;80;21060;-82
2022/07/06 09:14:45;;;;;;;8.90;5.28;;;;;;;33.52;41.25;99317.08;1753622;80;21091;-83
2022/07/06 09:17:12;;;;;;;6.42;5.15;;;;;;;33.67;41.96;99307.70;1741351;81;21598;-80
2022/07/06 09:19:39;;;;;;;8.03;5.20;;;;;;;33.85;41.09;99322.16;1753251;81;21093;-81
2022/07/06 09:22:05;;;;;;;6.30;5.08;;;;;;;34.10;40.33;99305.78;1754885;80;21081;-80
2022/07/06 09:24:32;;;;;;;5.22;4.80;;;;;;;34.31;40.04;99296.70;1715796;80;21112;-79
2022/07/06 09:27:00;;;;;;;7.78;4.72;;;;;;;34.60;40.08;99291.67;1732793;80;21129;-80
2022/07/06 09:29:29;;;;;;;5.33;4.83;;;;;;;35.04;39.38;99296.98;1750507;80;21889;-80
2022/07/06 09:31:59;;;;;;;6.12;5.20;;;;;;;35.52;38.62;99273.08;1751417;80;21057;-79
2022/07/06 09:34:40;;;;;;;5.55;5.05;;;;;;;36.01;37.46;99281.31;1762805;80;20969;-79
2022/07/06 09:37:08;;;;;;;7.10;4.87;;;;;;;36.38;36.71;99287.53;1743626;80;21072;-83
2022/07/06 09:39:34;;;;;;;6.10;5.03;;;;;;;36.76;36.30;99266.03;1760753;80;21027;-81
2022/07/06 09:42:09;;;;;;;6.95;4.72;;;;;;;37.23;35.58;99279.12;1767979;80;21189;-77
2022/07/06 09:44:41;;;;;;;12.85;5.42;;;;;;;37.73;35.33;99271.20;1764072;80;20977;-79
2022/07/06 09:47:09;;;;;;;5.40;4.90;;;;;;;38.15;33.91;99278.27;1763396;79;21075;-78
2022/07/06 09:49:38;;;;;;;5.42;4.87;;;;;;;38.24;33.95;99264.75;1767312;79;21065;-78
2022/07/06 09:52:10;;;;;;;5.67;4.80;;;;;;;38.44;33.46;99264.14;1769961;80;21040;-79
2022/07/06 09:54:38;;;;;;;6.00;5.42;;;;;;;38.67;32.94;99258.64;1768373;80;21231;-77
2022/07/06 09:57:05;;;;;;;5.78;5.20;;;;;;;38.85;32.00;99275.04;1769228;80;21343;-84
2022/07/06 09:59:34;;;;;;;6.87;5.33;;;;;;;38.92;32.24;99264.63;1768973;80;21028;-80
2022/07/06 10:02:06;;;;;;;8.18;5.28;;;;;;;39.11;32.07;99288.78;1760178;80;21024;-78
2022/07/06 10:04:33;;;;;;;9.00;5.28;;;;;;;39.32;30.41;99263.33;1761046;80;21036;-79
2022/07/06 10:07:02;;;;;;;6.45;5.85;;;;;;;39.27;30.43;99273.36;1758664;80;21302;-80
2022/07/06 10:09:29;;;;;;;11.00;5.53;;;;;;;39.21;30.47;99264.53;1769743;80;21402;-78
2022/07/06 10:11:59;;;;;;;7.37;5.60;;;;;;;39.12;30.20;99256.48;1764690;80;21029;-80
2022/07/06 10:14:32;;;;;;;6.07;5.50;;;;;;;38.72;30.22;99286.11;1765093;80;21049;-78
2022/07/06 10:17:01;;;;;;;9.10;5.92;;;;;;;38.08;31.06;99254.54;1768742;80;21989;-85
2022/07/06 10:19:32;;;;;;;7.50;6.03;;;;;;;37.35;31.44;99292.06;1760106;80;21245;-80
2022/07/06 10:22:03;;;;;;;6.05;5.55;;;;;;;36.81;32.53;99282.38;1731141;80;22135;-85
2022/07/06 10:24:39;;;;;;;7.10;6.22;;;;;;;36.36;33.12;99262.78;1772103;80;21076;-85
2022/07/06 10:27:07;;;;;;;8.03;5.30;;;;;;;36.25;33.61;99265.23;1757419;80;21057;-84
2022/07/06 10:29:35;;;;;;;5.83;5.10;;;;;;;36.58;33.93;99246.97;1755563;80;21037;-84
2022/07/06 10:32:01;;;;;;;7.10;6.40;;;;;;;37.12;32.62;99250.33;1757657;80;22147;-85
2022/07/06 10:34:30;;;;;;;6.87;6.03;;;;;;;37.56;31.79;99247.44;1762853;80;21072;-84
2022/07/06 10:36:59;;;;;;;7.50;6.47;;;;;;;37.63;31.01;99245.42;1757553;80;21018;-85
2022/07/06 10:42:51;;;;;;;9.03;6.50;;;;;;;37.61;30.88;99241.65;1767738;80;21002;-80
2022/07/06 10:45:32;;;;;;;7.12;6.40;;;;;;;37.29;31.37;99233.95;1755044;80;21155;-76
2022/07/06 10:48:17;;;;;;;7.00;6.47;;;;;;;36.87;31.88;99222.84;1764481;80;21548;-73
2022/07/06 10:50:52;;;;;;;8.00;7.28;;;;;;;36.68;32.17;99227.69;1767253;80;21043;-79
2022/07/06 10:53:27;;;;;;;7.78;7.03;;;;;;;36.63;32.27;99234.86;1754077;80;21191;-80
2022/07/06 10:55:55;;;;;;;7.95;7.15;;;;;;;36.55;32.53;99212.33;1766723;80;21033;-79
2022/07/06 10:58:43;;;;;;;7.87;6.60;;;;;;;36.61;32.65;99213.66;1765354;80;21088;-78
2022/07/06 11:01:10;;;;;;;6.47;5.97;;;;;;;36.66;32.42;99227.83;1772684;80;21052;-77
2022/07/06 11:04:00;;;;;;;8.08;6.53;;;;;;;36.50;32.92;99215.34;1769211;80;21029;-76
2022/07/06 11:06:27;;;;;;;6.97;6.37;;;;;;;36.36;33.05;99208.86;1761413;80;21025;-77
2022/07/06 11:08:59;;;;;;;7.37;6.62;;;;;;;36.37;33.33;99210.45;1763724;80;21005;-80
2022/07/06 11:11:44;;;;;;;7.17;6.62;;;;;;;36.56;33.18;99200.87;1760801;80;21762;-80
2022/07/06 11:14:14;;;;;;;6.37;5.83;;;;;;;36.95;32.54;99226.58;1771605;80;20998;-78
2022/07/06 11:16:54;;;;;;;7.00;6.40;;;;;;;37.42;32.27;99193.91;1770108;80;21033;-79
2022/07/06 11:19:25;;;;;;;7.08;5.85;;;;;;;37.86;31.90;99175.66;1774414;80;21056;-81
2022/07/06 11:21:59;;;;;;;6.58;6.05;;;;;;;38.37;31.62;99160.80;1733284;80;21052;-81
2022/07/06 11:24:31;;;;;;;7.03;6.47;;;;;;;39.00;31.18;99164.23;1780983;80;21234;-82
2022/07/06 11:27:06;;;;;;;8.35;6.53;;;;;;;39.59;30.44;99162.70;1762859;80;21092;-80
2022/07/06 11:29:38;;;;;;;9.88;6.00;;;;;;;40.16;29.64;99168.73;1764724;80;21017;-81
2022/07/06 11:32:09;;;;;;;6.58;5.95;;;;;;;40.58;29.19;99181.49;1760046;80;21062;-79
2022/07/06 11:34:44;;;;;;;11.15;6.10;;;;;;;40.91;28.10;99168.66;1766768;80;26412;-82
2022/07/06 11:37:12;;;;;;;7.85;6.30;;;;;;;40.80;28.43;99166.60;1758847;80;21452;-78
2022/07/06 11:39:44;;;;;;;7.75;6.20;;;;;;;40.76;28.69;99172.73;1771479;80;21021;-80
2022/07/06 11:42:16;;;;;;;8.98;6.03;;;;;;;41.03;28.29;99157.19;1763958;80;21069;-80
2022/07/06 11:44:45;;;;;;;7.22;6.40;;;;;;;41.11;28.22;99192.85;1765956;80;21048;-81
2022/07/06 11:47:15;;;;;;;8.28;6.22;;;;;;;40.96;28.61;99152.98;1764216;80;20926;-81
2022/07/06 11:49:45;;;;;;;6.42;5.80;;;;;;;40.76;28.84;99146.86;1776350;80;21524;-81
2022/07/06 11:52:13;;;;;;;6.80;6.20;;;;;;;40.54;29.04;99146.66;1781386;80;20993;-77